Time;durP1;ratioP1;P1;durP2;ratioP2;P2;SDS_P1;SDS_P2;PMS_P1;PMS_P2;Temp;Humidity;BMP_temperature;BMP_pressure;BME280_temperature;BME280_humidity;BME280_pressure;Samples;Min_cycle;Max_cycle;Signal;HPM_P1;HPM_P2
2022/01/28 00:00:08;;;;;;;11.70;2.17;;;;;;;;;;6225725;22;20043;-85
2022/01/28 00:02:48;;;;;;;11.38;2.58;;;;;;;;;;6226736;22;20243;-84
2022/01/28 00:05:19;;;;;;;12.77;2.50;;;;;;;;;;6226599;22;20073;-84
2022/01/28 00:07:45;;;;;;;11.88;2.38;;;;;;;;;;6224034;22;20020;-84
2022/01/28 00:10:11;;;;;;;7.18;1.98;;;;;;;;;;6221664;22;20813;-84
2022/01/28 00:12:50;;;;;;;14.85;2.08;;;;;;;;;;6222330;22;20398;-84
2022/01/28 00:15:26;;;;;;;12.00;1.90;;;;;;;;;;6225710;22;20019;-84
2022/01/28 00:18:24;;;;;;;8.02;2.33;;;;;;;;;;6224467;22;20030;-84
2022/01/28 00:21:03;;;;;;;15.25;2.50;;;;;;;;;;6252163;22;20026;-85
2022/01/28 00:37:26;;;;;;;13.13;1.88;;;;;;;;;;6250812;22;20087;-85
2022/01/28 00:39:51;;;;;;;14.25;2.25;;;;;;;;;;6250698;22;20400;-85
2022/01/28 00:42:17;;;;;;;10.98;2.60;;;;;;;;;;6221118;22;20195;-85
2022/01/28 00:44:43;;;;;;;7.88;2.97;;;;;;;;;;6221541;22;20023;-84
2022/01/28 00:47:09;;;;;;;11.68;2.40;;;;;;;;;;6220763;22;20515;-85
2022/01/28 00:49:35;;;;;;;14.30;2.60;;;;;;;;;;6223149;22;20019;-84
2022/01/28 00:52:01;;;;;;;11.35;2.85;;;;;;;;;;6221726;22;20031;-85
2022/01/28 00:54:26;;;;;;;13.60;2.13;;;;;;;;;;6220776;22;20023;-85
2022/01/28 00:56:52;;;;;;;11.15;2.88;;;;;;;;;;6218069;22;20086;-84
2022/01/28 00:59:18;;;;;;;10.52;2.47;;;;;;;;;;6222229;22;20486;-85
2022/01/28 01:01:44;;;;;;;9.63;1.90;;;;;;;;;;6246833;22;20023;-85
2022/01/28 01:04:10;;;;;;;11.57;2.15;;;;;;;;;;6247715;22;20119;-84
2022/01/28 01:06:36;;;;;;;10.38;2.25;;;;;;;;;;6248165;22;20038;-84
2022/01/28 01:09:01;;;;;;;10.57;2.38;;;;;;;;;;6221745;22;20012;-85
2022/01/28 01:11:28;;;;;;;6.18;1.90;;;;;;;;;;6246099;22;22175;-85
2022/01/28 01:13:54;;;;;;;12.43;2.33;;;;;;;;;;6220921;22;20352;-84
2022/01/28 01:16:29;;;;;;;15.40;2.40;;;;;;;;;;6221337;22;20020;-84
2022/01/28 01:19:15;;;;;;;16.38;3.03;;;;;;;;;;6224096;22;20018;-85
2022/01/28 01:21:43;;;;;;;10.05;2.20;;;;;;;;;;6225036;22;20015;-84
2022/01/28 01:24:18;;;;;;;13.90;2.33;;;;;;;;;;6221767;22;20019;-84
2022/01/28 01:26:44;;;;;;;13.00;2.50;;;;;;;;;;6222867;22;20030;-84
2022/01/28 01:29:12;;;;;;;12.43;2.22;;;;;;;;;;6222126;22;20020;-85
2022/01/28 01:31:41;;;;;;;11.65;2.53;;;;;;;;;;6245680;22;20015;-84
2022/01/28 01:36:33;;;;;;;11.52;2.40;;;;;;;;;;6245654;22;20073;-85
2022/01/28 01:38:59;;;;;;;18.98;3.08;;;;;;;;;;6221692;22;20074;-85
2022/01/28 01:41:36;;;;;;;15.73;2.58;;;;;;;;;;6221867;22;20367;-85
2022/01/28 01:44:28;;;;;;;18.75;3.25;;;;;;;;;;6223939;22;20348;-85
2022/01/28 01:52:40;;;;;;;14.80;2.55;;;;;;;;;;6252418;22;20026;-85
2022/01/28 01:55:07;;;;;;;17.08;2.88;;;;;;;;;;6223930;22;20023;-85
2022/01/28 01:57:34;;;;;;;15.15;2.72;;;;;;;;;;6220683;22;20518;-84
2022/01/28 01:59:59;;;;;;;16.13;3.50;;;;;;;;;;6220602;22;20016;-85
2022/01/28 02:02:25;;;;;;;14.48;2.97;;;;;;;;;;6221018;22;20050;-85
2022/01/28 02:04:52;;;;;;;16.27;3.30;;;;;;;;;;6220805;22;20016;-84
2022/01/28 02:07:19;;;;;;;16.15;2.70;;;;;;;;;;6244386;22;20040;-84
2022/01/28 02:09:45;;;;;;;10.65;2.45;;;;;;;;;;6221598;22;20039;-85
2022/01/28 02:12:10;;;;;;;9.23;2.40;;;;;;;;;;6220641;22;20016;-85
2022/01/28 02:14:36;;;;;;;11.48;2.22;;;;;;;;;;6221233;22;20029;-85
2022/01/28 02:17:03;;;;;;;10.73;2.90;;;;;;;;;;6247452;22;20349;-85
2022/01/28 02:19:29;;;;;;;13.88;2.50;;;;;;;;;;6221006;22;20011;-85
2022/01/28 02:21:55;;;;;;;17.52;2.70;;;;;;;;;;6220237;22;20326;-85
2022/01/28 02:24:28;;;;;;;15.43;3.42;;;;;;;;;;6220250;22;20042;-85
2022/01/28 02:26:53;;;;;;;12.80;2.38;;;;;;;;;;6222538;22;20008;-85
2022/01/28 02:29:28;;;;;;;13.75;2.92;;;;;;;;;;6246343;22;20032;-84
2022/01/28 02:31:55;;;;;;;12.10;3.00;;;;;;;;;;6222485;22;20015;-85
2022/01/28 02:34:20;;;;;;;14.93;2.45;;;;;;;;;;6220383;22;20452;-85
2022/01/28 02:36:46;;;;;;;14.05;2.25;;;;;;;;;;6220746;22;20023;-85
2022/01/28 02:39:12;;;;;;;10.88;2.05;;;;;;;;;;6222390;22;20024;-84
2022/01/28 02:41:42;;;;;;;13.80;2.83;;;;;;;;;;6248738;22;20046;-84
2022/01/28 02:44:21;;;;;;;13.75;1.98;;;;;;;;;;6249742;22;20007;-85
2022/01/28 02:47:02;;;;;;;14.18;2.38;;;;;;;;;;6225854;22;20027;-85
2022/01/28 02:49:34;;;;;;;15.60;2.72;;;;;;;;;;6225951;22;20024;-85
2022/01/28 02:52:01;;;;;;;16.85;2.75;;;;;;;;;;6223859;22;20047;-84
2022/01/28 02:54:27;;;;;;;13.13;2.90;;;;;;;;;;6222333;22;20106;-84
2022/01/28 02:56:59;;;;;;;12.02;2.28;;;;;;;;;;6223103;22;20020;-85
2022/01/28 02:59:24;;;;;;;14.45;3.17;;;;;;;;;;6227835;22;20453;-85
2022/01/28 03:01:50;;;;;;;10.95;3.05;;;;;;;;;;6222488;22;20069;-85
2022/01/28 03:04:49;;;;;;;13.63;3.33;;;;;;;;;;6247892;22;20122;-85
2022/01/28 03:07:05;;;;;;;16.98;2.95;;;;;;;;;;6252581;22;20039;-85
2022/01/28 03:09:51;;;;;;;17.60;3.88;;;;;;;;;;6222385;22;20097;-84
2022/01/28 03:12:20;;;;;;;15.80;2.65;;;;;;;;;;6225132;22;20020;-85
2022/01/28 03:22:45;;;;;;;12.85;3.45;;;;;;;;;;6247553;22;20012;-84
2022/01/28 03:25:11;;;;;;;10.10;2.60;;;;;;;;;;6219408;22;20099;-85
2022/01/28 03:27:53;;;;;;;14.73;3.67;;;;;;;;;;6219348;22;20020;-85
2022/01/28 03:30:19;;;;;;;12.35;2.53;;;;;;;;;;6223930;22;20453;-85
2022/01/28 03:32:45;;;;;;;18.95;3.83;;;;;;;;;;6220512;22;20011;-84
2022/01/28 03:35:13;;;;;;;15.85;3.38;;;;;;;;;;6220160;22;20018;-84
2022/01/28 03:37:39;;;;;;;20.95;3.85;;;;;;;;;;6219848;22;20027;-84
2022/01/28 03:40:07;;;;;;;11.52;2.55;;;;;;;;;;6220309;22;20099;-84
2022/01/28 03:42:33;;;;;;;15.63;3.45;;;;;;;;;;6221034;22;20103;-84
2022/01/28 03:44:58;;;;;;;17.60;3.15;;;;;;;;;;6219547;22;20019;-84
2022/01/28 03:47:24;;;;;;;18.70;2.80;;;;;;;;;;6220924;22;20070;-84
2022/01/28 03:49:50;;;;;;;13.32;3.08;;;;;;;;;;6217891;22;20020;-84
2022/01/28 03:52:16;;;;;;;11.85;2.70;;;;;;;;;;6246378;22;20315;-84
2022/01/28 03:54:41;;;;;;;11.50;1.98;;;;;;;;;;6245950;22;20035;-85
2022/01/28 03:57:07;;;;;;;18.30;3.38;;;;;;;;;;6219216;22;20011;-84
2022/01/28 03:59:34;;;;;;;16.38;3.25;;;;;;;;;;6219959;22;20016;-84
2022/01/28 04:02:00;;;;;;;17.02;3.13;;;;;;;;;;6219126;22;20069;-85
2022/01/28 04:12:25;;;;;;;13.27;2.58;;;;;;;;;;6248741;22;20026;-84
2022/01/28 04:15:08;;;;;;;14.73;2.85;;;;;;;;;;6219898;22;20019;-84
2022/01/28 04:17:34;;;;;;;12.70;2.55;;;;;;;;;;6244436;22;20038;-84
2022/01/28 04:19:59;;;;;;;17.25;3.67;;;;;;;;;;6219963;22;20123;-84
2022/01/28 04:22:25;;;;;;;15.10;3.22;;;;;;;;;;6219812;22;20020;-84
2022/01/28 04:24:51;;;;;;;10.77;2.63;;;;;;;;;;6219816;22;20016;-84
2022/01/28 04:27:17;;;;;;;13.98;2.80;;;;;;;;;;6217149;22;20023;-84
2022/01/28 04:29:43;;;;;;;11.30;3.40;;;;;;;;;;6217473;22;20022;-85
2022/01/28 04:32:11;;;;;;;15.30;3.13;;;;;;;;;;6242353;22;20012;-84
2022/01/28 04:34:37;;;;;;;12.25;2.55;;;;;;;;;;6241959;22;20012;-84
2022/01/28 04:39:46;;;;;;;18.88;3.65;;;;;;;;;;6243485;22;20022;-84
2022/01/28 04:42:37;;;;;;;15.65;2.67;;;;;;;;;;6220202;22;20157;-84
2022/01/28 04:47:44;;;;;;;12.13;2.60;;;;;;;;;;6244229;22;20338;-84
2022/01/28 04:50:41;;;;;;;10.10;1.85;;;;;;;;;;6246557;22;20015;-84
2022/01/28 04:56:09;;;;;;;21.02;2.70;;;;;;;;;;6223465;22;20012;-84
2022/01/28 04:58:48;;;;;;;12.85;2.90;;;;;;;;;;6249177;22;20038;-84
2022/01/28 05:07:13;;;;;;;13.23;3.53;;;;;;;;;;6247553;22;20023;-84
2022/01/28 05:10:09;;;;;;;14.15;3.10;;;;;;;;;;6256515;22;20024;-85
2022/01/28 05:12:58;;;;;;;15.13;2.33;;;;;;;;;;6251708;22;20030;-85
2022/01/28 05:15:49;;;;;;;16.05;3.40;;;;;;;;;;6255476;22;20381;-85
2022/01/28 05:28:52;;;;;;;14.10;2.97;;;;;;;;;;6247348;22;20471;-84
2022/01/28 05:31:18;;;;;;;14.70;2.53;;;;;;;;;;6222950;22;20079;-85
2022/01/28 05:33:45;;;;;;;17.27;3.45;;;;;;;;;;6222515;22;20075;-85
2022/01/28 05:36:11;;;;;;;11.18;2.83;;;;;;;;;;6217019;22;20035;-85
2022/01/28 05:38:37;;;;;;;9.27;2.50;;;;;;;;;;6222457;22;20015;-85
2022/01/28 05:41:03;;;;;;;18.45;2.95;;;;;;;;;;6220748;22;20087;-85
2022/01/28 05:43:28;;;;;;;15.95;3.40;;;;;;;;;;6221056;22;20023;-85
2022/01/28 05:45:54;;;;;;;13.32;2.95;;;;;;;;;;6220740;22;20020;-85
2022/01/28 05:48:21;;;;;;;24.17;3.20;;;;;;;;;;6222669;22;20043;-85
2022/01/28 05:50:47;;;;;;;17.00;3.35;;;;;;;;;;6220457;22;20015;-85
2022/01/28 05:53:13;;;;;;;11.18;2.60;;;;;;;;;;6222665;22;20043;-85
2022/01/28 05:55:39;;;;;;;17.63;2.83;;;;;;;;;;6222651;22;20054;-85
2022/01/28 05:58:05;;;;;;;17.70;2.85;;;;;;;;;;6223385;22;20019;-85
2022/01/28 06:00:31;;;;;;;15.52;2.95;;;;;;;;;;6215875;22;20487;-85
2022/01/28 06:02:57;;;;;;;13.63;2.83;;;;;;;;;;6219788;22;20011;-85
2022/01/28 06:05:29;;;;;;;18.50;3.55;;;;;;;;;;6220203;22;20074;-85
2022/01/28 06:07:54;;;;;;;15.00;2.70;;;;;;;;;;6222598;22;20022;-85
2022/01/28 06:10:20;;;;;;;13.00;2.95;;;;;;;;;;6220539;22;20027;-85
2022/01/28 06:12:47;;;;;;;16.98;3.40;;;;;;;;;;6221382;22;20012;-85
2022/01/28 06:15:15;;;;;;;15.32;2.95;;;;;;;;;;6247754;22;20392;-86
2022/01/28 06:17:41;;;;;;;15.00;2.65;;;;;;;;;;6222140;22;20083;-85
2022/01/28 06:20:09;;;;;;;18.38;3.53;;;;;;;;;;6223145;22;20111;-85
2022/01/28 06:22:44;;;;;;;22.13;6.03;;;;;;;;;;6221657;22;20409;-85
2022/01/28 06:25:11;;;;;;;24.40;5.75;;;;;;;;;;6221909;22;20066;-85
2022/01/28 06:27:37;;;;;;;20.38;3.70;;;;;;;;;;6223129;22;20164;-85
2022/01/28 06:30:05;;;;;;;20.73;4.20;;;;;;;;;;6222965;22;20395;-85
2022/01/28 06:32:32;;;;;;;19.20;3.60;;;;;;;;;;6221827;22;20011;-85
2022/01/28 06:35:00;;;;;;;16.67;2.95;;;;;;;;;;6222310;22;20065;-85
2022/01/28 06:37:26;;;;;;;17.95;3.15;;;;;;;;;;6212198;22;20020;-85
2022/01/28 06:39:52;;;;;;;16.73;3.33;;;;;;;;;;6221968;22;20087;-85
2022/01/28 06:42:18;;;;;;;11.07;2.80;;;;;;;;;;6222661;22;20081;-85
2022/01/28 06:44:43;;;;;;;21.52;3.47;;;;;;;;;;6225849;22;20518;-85
2022/01/28 06:47:11;;;;;;;12.27;3.17;;;;;;;;;;6223455;22;20042;-85
2022/01/28 06:49:38;;;;;;;14.48;2.85;;;;;;;;;;6223168;22;20027;-85
2022/01/28 06:52:05;;;;;;;20.95;3.65;;;;;;;;;;6221471;22;20411;-85
2022/01/28 06:54:30;;;;;;;16.77;3.00;;;;;;;;;;6220969;22;20042;-85
2022/01/28 06:56:57;;;;;;;16.05;3.17;;;;;;;;;;6248287;22;20437;-85
2022/01/28 06:59:22;;;;;;;19.80;2.78;;;;;;;;;;6222719;22;20045;-85
2022/01/28 07:01:48;;;;;;;16.50;4.28;;;;;;;;;;6222138;22;20233;-85
2022/01/28 07:04:14;;;;;;;14.68;2.83;;;;;;;;;;6218151;22;20024;-85
2022/01/28 07:06:40;;;;;;;20.35;3.25;;;;;;;;;;6223865;22;20024;-85
2022/01/28 07:09:07;;;;;;;19.40;3.75;;;;;;;;;;6224464;22;20099;-85
2022/01/28 07:11:33;;;;;;;14.77;3.75;;;;;;;;;;6222385;22;20504;-85
2022/01/28 07:13:59;;;;;;;18.65;2.63;;;;;;;;;;6223607;22;20015;-85
2022/01/28 07:16:24;;;;;;;17.67;3.13;;;;;;;;;;6222835;22;20091;-85
2022/01/28 07:18:50;;;;;;;11.25;2.83;;;;;;;;;;6217662;22;20419;-85
2022/01/28 07:21:16;;;;;;;14.55;2.70;;;;;;;;;;6224428;22;20062;-85
2022/01/28 07:23:42;;;;;;;14.00;3.53;;;;;;;;;;6222430;22;20353;-85
2022/01/28 07:26:07;;;;;;;15.50;3.45;;;;;;;;;;6221795;22;20038;-85
2022/01/28 07:28:35;;;;;;;15.93;4.07;;;;;;;;;;6222525;22;20069;-85
2022/01/28 07:31:01;;;;;;;19.70;2.67;;;;;;;;;;6223924;22;20023;-85
2022/01/28 07:33:27;;;;;;;16.05;3.15;;;;;;;;;;6220667;22;20302;-85
2022/01/28 07:35:53;;;;;;;13.98;3.67;;;;;;;;;;6223023;22;20038;-86
2022/01/28 07:38:18;;;;;;;22.23;4.05;;;;;;;;;;6220365;22;20023;-85
2022/01/28 07:40:44;;;;;;;14.40;3.30;;;;;;;;;;6222177;22;20453;-85
2022/01/28 07:43:10;;;;;;;17.38;3.33;;;;;;;;;;6221716;22;20077;-86
2022/01/28 07:45:36;;;;;;;20.25;3.88;;;;;;;;;;6245989;22;20042;-85
2022/01/28 07:48:01;;;;;;;13.80;2.78;;;;;;;;;;6222069;22;20442;-85
2022/01/28 07:50:27;;;;;;;16.92;2.90;;;;;;;;;;6221842;22;20070;-85
2022/01/28 07:52:53;;;;;;;18.90;2.92;;;;;;;;;;6220000;22;20345;-86
2022/01/28 07:55:19;;;;;;;14.23;2.85;;;;;;;;;;6221922;22;20169;-85
2022/01/28 07:57:45;;;;;;;16.35;3.03;;;;;;;;;;6221333;22;20091;-85
2022/01/28 08:00:13;;;;;;;13.57;3.22;;;;;;;;;;6249380;22;20024;-86
2022/01/28 08:02:42;;;;;;;15.65;3.40;;;;;;;;;;6224096;22;20028;-85
2022/01/28 08:05:09;;;;;;;22.52;3.53;;;;;;;;;;6225702;22;20083;-85
2022/01/28 08:07:34;;;;;;;18.55;3.85;;;;;;;;;;6222398;22;20020;-85
2022/01/28 08:10:00;;;;;;;19.60;4.30;;;;;;;;;;6217803;22;20077;-82
2022/01/28 08:12:26;;;;;;;17.92;3.92;;;;;;;;;;6217835;22;20030;-82
2022/01/28 08:14:51;;;;;;;14.90;4.28;;;;;;;;;;6220065;22;20594;-82
2022/01/28 08:17:17;;;;;;;17.23;3.55;;;;;;;;;;6220266;22;20225;-82
2022/01/28 08:19:43;;;;;;;19.05;3.08;;;;;;;;;;6219782;22;20055;-82
2022/01/28 08:22:08;;;;;;;17.15;3.80;;;;;;;;;;6247295;22;20020;-83
2022/01/28 08:24:34;;;;;;;19.35;3.15;;;;;;;;;;6246488;22;20016;-82
2022/01/28 08:27:00;;;;;;;19.15;3.75;;;;;;;;;;6220520;22;20449;-82
2022/01/28 08:29:26;;;;;;;23.17;4.05;;;;;;;;;;6242596;22;20104;-82
2022/01/28 08:31:51;;;;;;;17.17;3.47;;;;;;;;;;6217730;22;20043;-82
2022/01/28 08:34:17;;;;;;;15.05;2.95;;;;;;;;;;6219063;22;20020;-82
2022/01/28 08:36:43;;;;;;;19.17;4.75;;;;;;;;;;6218807;22;20531;-82
2022/01/28 08:39:10;;;;;;;21.45;3.67;;;;;;;;;;6219680;22;20018;-82
2022/01/28 08:41:39;;;;;;;23.50;4.25;;;;;;;;;;6222412;22;20031;-83
2022/01/28 08:44:05;;;;;;;15.68;4.05;;;;;;;;;;6246523;22;20011;-82
2022/01/28 08:46:31;;;;;;;17.88;3.35;;;;;;;;;;6220035;22;20094;-83
2022/01/28 08:48:57;;;;;;;17.02;4.70;;;;;;;;;;6218630;22;20434;-82
2022/01/28 08:51:22;;;;;;;22.23;4.70;;;;;;;;;;6217891;22;20024;-82
2022/01/28 08:53:48;;;;;;;18.73;4.25;;;;;;;;;;6243195;22;20026;-83
2022/01/28 08:56:14;;;;;;;21.60;4.68;;;;;;;;;;6217372;22;20020;-83
2022/01/28 08:58:40;;;;;;;22.52;3.38;;;;;;;;;;6218403;22;20071;-84
2022/01/28 09:01:05;;;;;;;17.60;3.72;;;;;;;;;;6218553;22;20137;-84
2022/01/28 09:03:33;;;;;;;20.80;3.97;;;;;;;;;;6217206;22;20456;-84
2022/01/28 09:05:59;;;;;;;15.88;3.47;;;;;;;;;;6218625;22;20019;-87
2022/01/28 09:08:25;;;;;;;22.27;3.97;;;;;;;;;;6219826;22;20402;-85
2022/01/28 09:10:58;;;;;;;17.58;3.60;;;;;;;;;;6218163;22;20020;-84
2022/01/28 09:13:27;;;;;;;18.52;4.05;;;;;;;;;;6245672;22;20026;-84
2022/01/28 09:15:55;;;;;;;18.83;4.03;;;;;;;;;;6244612;22;20087;-85
2022/01/28 09:18:22;;;;;;;25.45;3.55;;;;;;;;;;6242344;22;20027;-84
2022/01/28 09:20:48;;;;;;;20.63;3.65;;;;;;;;;;6244332;22;20080;-84
2022/01/28 09:23:14;;;;;;;17.73;3.65;;;;;;;;;;6217738;22;20019;-84
2022/01/28 09:25:40;;;;;;;21.65;5.68;;;;;;;;;;6244015;22;20015;-84
2022/01/28 09:28:05;;;;;;;19.75;4.90;;;;;;;;;;6243398;22;20016;-84
2022/01/28 09:30:32;;;;;;;16.48;4.07;;;;;;;;;;6243654;22;20050;-84
2022/01/28 09:32:58;;;;;;;24.88;6.03;;;;;;;;;;6217478;22;20085;-84
2022/01/28 09:35:24;;;;;;;24.13;5.68;;;;;;;;;;6219348;22;20168;-84
2022/01/28 09:37:51;;;;;;;17.30;4.15;;;;;;;;;;6218716;22;20031;-84
2022/01/28 09:40:17;;;;;;;21.60;5.25;;;;;;;;;;6219668;22;20034;-84
2022/01/28 09:42:45;;;;;;;13.10;3.05;;;;;;;;;;6218436;22;20463;-83
2022/01/28 09:45:11;;;;;;;19.08;4.43;;;;;;;;;;6219794;22;20023;-84
2022/01/28 09:47:38;;;;;;;20.98;4.45;;;;;;;;;;6218102;22;20020;-84
2022/01/28 09:50:05;;;;;;;22.38;3.70;;;;;;;;;;6243559;22;20075;-85
2022/01/28 09:52:32;;;;;;;18.30;3.47;;;;;;;;;;6239732;22;20425;-85
2022/01/28 09:54:58;;;;;;;16.17;3.15;;;;;;;;;;6241308;22;20016;-85
2022/01/28 09:57:24;;;;;;;16.70;3.53;;;;;;;;;;6218006;22;20095;-83
2022/01/28 09:59:49;;;;;;;16.40;2.70;;;;;;;;;;6243111;22;20077;-84
2022/01/28 10:02:15;;;;;;;17.38;3.45;;;;;;;;;;6217154;22;20030;-85
2022/01/28 10:04:41;;;;;;;17.95;4.05;;;;;;;;;;6214575;22;20012;-84
2022/01/28 10:07:18;;;;;;;15.48;3.67;;;;;;;;;;6207103;22;20007;-84
2022/01/28 10:09:58;;;;;;;16.35;3.10;;;;;;;;;;6219231;22;20119;-85
2022/01/28 10:12:40;;;;;;;16.15;4.25;;;;;;;;;;6216652;22;20035;-85
2022/01/28 10:15:27;;;;;;;16.55;3.40;;;;;;;;;;6222131;22;20043;-85
2022/01/28 10:17:55;;;;;;;14.80;4.55;;;;;;;;;;6222675;22;20011;-85
2022/01/28 10:20:22;;;;;;;18.65;3.78;;;;;;;;;;6217769;22;20031;-86
2022/01/28 10:22:58;;;;;;;18.33;3.08;;;;;;;;;;6215896;22;20034;-86
2022/01/28 10:25:32;;;;;;;22.35;4.10;;;;;;;;;;6217417;22;20087;-85
2022/01/28 10:28:06;;;;;;;14.43;3.60;;;;;;;;;;6220040;22;20086;-86
2022/01/28 10:30:36;;;;;;;22.95;4.10;;;;;;;;;;6218855;22;20038;-86
2022/01/28 10:33:23;;;;;;;13.80;2.75;;;;;;;;;;6217882;22;20020;-86
2022/01/28 10:35:58;;;;;;;16.05;3.67;;;;;;;;;;6268784;22;20016;-85
2022/01/28 10:38:38;;;;;;;12.80;3.90;;;;;;;;;;6243886;22;20338;-85
2022/01/28 10:41:10;;;;;;;18.98;3.53;;;;;;;;;;6217330;22;20016;-85
2022/01/28 10:43:52;;;;;;;17.52;3.35;;;;;;;;;;6219634;22;20011;-85
2022/01/28 10:46:23;;;;;;;15.93;4.05;;;;;;;;;;6217531;22;20066;-85
2022/01/28 10:48:56;;;;;;;16.58;3.65;;;;;;;;;;6243273;22;20012;-85
2022/01/28 10:51:39;;;;;;;16.75;3.65;;;;;;;;;;6243248;22;20431;-84
2022/01/28 10:54:06;;;;;;;12.25;2.78;;;;;;;;;;6217456;22;20053;-85
2022/01/28 10:56:50;;;;;;;16.48;3.25;;;;;;;;;;6217750;22;20046;-84
2022/01/28 10:59:18;;;;;;;15.57;3.42;;;;;;;;;;6272477;22;20019;-85
2022/01/28 11:01:45;;;;;;;20.65;3.78;;;;;;;;;;6218885;22;20023;-84
2022/01/28 11:04:12;;;;;;;16.98;2.78;;;;;;;;;;6246010;22;20441;-84
2022/01/28 11:06:39;;;;;;;14.68;3.47;;;;;;;;;;6221166;22;20023;-85
2022/01/28 11:09:09;;;;;;;17.15;3.53;;;;;;;;;;6220127;22;20041;-86
2022/01/28 11:11:36;;;;;;;14.13;3.42;;;;;;;;;;6206818;22;20027;-85
2022/01/28 11:14:03;;;;;;;23.80;3.33;;;;;;;;;;6246435;22;20085;-85
2022/01/28 11:16:29;;;;;;;18.67;3.35;;;;;;;;;;6221006;22;20054;-84
2022/01/28 11:18:56;;;;;;;13.68;2.38;;;;;;;;;;6221380;22;20451;-84
2022/01/28 11:21:49;;;;;;;17.52;3.53;;;;;;;;;;6220496;22;20028;-84
2022/01/28 11:24:40;;;;;;;16.17;3.63;;;;;;;;;;6183518;22;20023;-83
2022/01/28 11:27:22;;;;;;;13.63;2.97;;;;;;;;;;6247560;22;20024;-85
2022/01/28 11:29:47;;;;;;;17.63;2.88;;;;;;;;;;6225174;22;20099;-85
2022/01/28 11:32:15;;;;;;;13.13;3.45;;;;;;;;;;6223786;22;20012;-85
2022/01/28 11:34:56;;;;;;;10.52;2.70;;;;;;;;;;6227996;22;20020;-85
2022/01/28 11:37:40;;;;;;;14.63;3.22;;;;;;;;;;6221948;22;20024;-86
2022/01/28 11:40:12;;;;;;;16.83;3.20;;;;;;;;;;6221720;22;20023;-85
2022/01/28 11:42:38;;;;;;;18.52;4.07;;;;;;;;;;6220934;22;20120;-85
2022/01/28 11:45:06;;;;;;;18.50;2.83;;;;;;;;;;6218621;22;20015;-86
2022/01/28 11:47:52;;;;;;;16.88;3.03;;;;;;;;;;6220613;22;20399;-85
2022/01/28 11:50:19;;;;;;;;;;;;;;;;;;6219526;22;20020;-85
2022/01/28 11:52:55;;;;;;;14.30;2.80;;;;;;;;;;6245303;22;20005;-85
2022/01/28 11:55:21;;;;;;;13.00;2.67;;;;;;;;;;6219686;22;20353;-85
2022/01/28 11:58:01;;;;;;;14.88;3.63;;;;;;;;;;6245679;22;20046;-85
2022/01/28 12:00:43;;;;;;;13.88;2.95;;;;;;;;;;6220895;22;20027;-85
2022/01/28 12:03:21;;;;;;;12.50;2.85;;;;;;;;;;6220384;22;20095;-85
2022/01/28 12:05:47;;;;;;;12.07;2.90;;;;;;;;;;6244910;22;20032;-85
2022/01/28 12:08:14;;;;;;;16.05;3.58;;;;;;;;;;6246445;22;20023;-85
2022/01/28 12:10:44;;;;;;;12.65;3.10;;;;;;;;;;6222254;22;20073;-85
2022/01/28 12:13:13;;;;;;;13.55;2.92;;;;;;;;;;6221987;22;20403;-85
2022/01/28 12:15:59;;;;;;;12.38;2.78;;;;;;;;;;6221846;22;20014;-85
2022/01/28 12:18:26;;;;;;;11.90;2.78;;;;;;;;;;6246339;22;20027;-85
2022/01/28 12:20:52;;;;;;;10.43;2.30;;;;;;;;;;6219462;22;20087;-85
2022/01/28 12:23:18;;;;;;;13.73;2.80;;;;;;;;;;6220572;22;20018;-85
2022/01/28 12:25:44;;;;;;;13.65;2.53;;;;;;;;;;6245012;22;20421;-85
2022/01/28 12:28:23;;;;;;;10.55;2.47;;;;;;;;;;6247267;22;20027;-85
2022/01/28 12:30:51;;;;;;;11.48;1.95;;;;;;;;;;6246285;22;20603;-85
2022/01/28 12:33:24;;;;;;;14.63;2.75;;;;;;;;;;6221031;22;20099;-85
2022/01/28 12:35:52;;;;;;;6.88;2.20;;;;;;;;;;6219910;22;20019;-85
2022/01/28 12:38:24;;;;;;;12.15;3.17;;;;;;;;;;6220086;22;20027;-85
2022/01/28 12:40:53;;;;;;;13.38;3.13;;;;;;;;;;6220644;22;20396;-85
2022/01/28 12:43:20;;;;;;;9.60;3.20;;;;;;;;;;6217578;22;20266;-85
2022/01/28 12:46:10;;;;;;;15.27;3.10;;;;;;;;;;6243549;22;20012;-85
2022/01/28 12:48:36;;;;;;;13.00;2.83;;;;;;;;;;6201409;22;20099;-85
2022/01/28 12:51:03;;;;;;;11.07;2.42;;;;;;;;;;6218973;22;20273;-85
2022/01/28 12:53:32;;;;;;;12.15;2.47;;;;;;;;;;6219694;22;20067;-85
2022/01/28 12:55:59;;;;;;;10.98;2.78;;;;;;;;;;6219193;22;20019;-85
2022/01/28 12:58:51;;;;;;;13.30;2.83;;;;;;;;;;6220110;22;20418;-85
2022/01/28 13:01:19;;;;;;;12.45;2.30;;;;;;;;;;6211963;22;20076;-85
2022/01/28 13:03:55;;;;;;;13.23;2.38;;;;;;;;;;6219575;22;20020;-86
2022/01/28 13:09:09;;;;;;;9.88;2.28;;;;;;;;;;6247246;22;20323;-85
2022/01/28 13:11:49;;;;;;;11.77;2.50;;;;;;;;;;6245877;22;20402;-85
2022/01/28 13:14:19;;;;;;;12.60;2.30;;;;;;;;;;6218645;22;20139;-85
2022/01/28 13:16:46;;;;;;;14.90;2.80;;;;;;;;;;6219926;22;20011;-86
2022/01/28 13:19:13;;;;;;;14.57;2.80;;;;;;;;;;6220180;22;20034;-85
2022/01/28 13:21:39;;;;;;;13.15;2.28;;;;;;;;;;6219099;22;20249;-85
2022/01/28 13:24:12;;;;;;;13.93;2.67;;;;;;;;;;6219168;22;20016;-85
2022/01/28 13:27:00;;;;;;;10.32;2.40;;;;;;;;;;6220406;22;20012;-86
2022/01/28 13:29:34;;;;;;;8.77;2.63;;;;;;;;;;6243660;22;20028;-85
2022/01/28 13:32:02;;;;;;;10.90;3.15;;;;;;;;;;6219357;22;20022;-85
2022/01/28 13:34:28;;;;;;;11.00;3.10;;;;;;;;;;6217451;22;20027;-85
2022/01/28 13:36:57;;;;;;;13.88;3.72;;;;;;;;;;6220202;22;20448;-86
2022/01/28 13:39:32;;;;;;;10.15;2.70;;;;;;;;;;6220047;22;20474;-86
2022/01/28 13:42:15;;;;;;;10.15;2.40;;;;;;;;;;6206905;22;20022;-85
2022/01/28 13:44:46;;;;;;;11.50;2.17;;;;;;;;;;6220505;22;20035;-85
2022/01/28 13:47:13;;;;;;;12.20;2.25;;;;;;;;;;6218940;22;20063;-86
2022/01/28 13:49:40;;;;;;;10.73;2.88;;;;;;;;;;6221051;22;20081;-85
2022/01/28 13:52:07;;;;;;;15.27;2.53;;;;;;;;;;6220153;22;20081;-86
2022/01/28 13:54:33;;;;;;;10.90;2.15;;;;;;;;;;6244296;22;20019;-85
2022/01/28 13:57:04;;;;;;;10.70;2.30;;;;;;;;;;6220463;22;20020;-85
2022/01/28 13:59:31;;;;;;;16.50;2.92;;;;;;;;;;6221217;22;20300;-85
2022/01/28 14:01:59;;;;;;;14.15;2.42;;;;;;;;;;6220695;22;20016;-85
2022/01/28 14:04:35;;;;;;;10.82;2.33;;;;;;;;;;6219687;22;20034;-85
2022/01/28 14:07:33;;;;;;;15.07;2.53;;;;;;;;;;6247104;22;20024;-85
2022/01/28 14:10:03;;;;;;;12.00;2.17;;;;;;;;;;6154213;22;20024;-85
2022/01/28 14:12:39;;;;;;;17.15;3.20;;;;;;;;;;6220610;22;20024;-85
2022/01/28 14:15:27;;;;;;;10.90;2.10;;;;;;;;;;6221916;22;20105;-85
2022/01/28 14:17:54;;;;;;;8.00;1.83;;;;;;;;;;6223878;22;20019;-85
2022/01/28 14:20:20;;;;;;;11.13;2.17;;;;;;;;;;6219684;22;20019;-86
2022/01/28 14:22:46;;;;;;;11.63;2.45;;;;;;;;;;6219266;22;20168;-85
2022/01/28 14:25:12;;;;;;;13.02;2.95;;;;;;;;;;6220187;22;20488;-85
2022/01/28 14:30:15;;;;;;;8.82;2.35;;;;;;;;;;6244601;22;20053;-86
2022/01/28 14:32:41;;;;;;;9.32;2.33;;;;;;;;;;6222288;22;20011;-86
2022/01/28 14:35:07;;;;;;;6.80;1.67;;;;;;;;;;6221245;22;20417;-86
2022/01/28 14:37:37;;;;;;;9.18;2.20;;;;;;;;;;6222158;22;20019;-86
2022/01/28 14:40:10;;;;;;;13.55;3.10;;;;;;;;;;6247692;22;20420;-86
2022/01/28 14:42:36;;;;;;;9.15;2.25;;;;;;;;;;6220991;22;20020;-86
2022/01/28 14:45:02;;;;;;;11.23;2.85;;;;;;;;;;6221797;22;20024;-86
2022/01/28 14:47:28;;;;;;;9.90;1.90;;;;;;;;;;6221548;22;20079;-85
2022/01/28 14:49:53;;;;;;;12.13;2.20;;;;;;;;;;6248083;22;20046;-86
2022/01/28 14:52:23;;;;;;;9.27;1.90;;;;;;;;;;6221621;22;20023;-86
2022/01/28 14:54:49;;;;;;;8.65;2.17;;;;;;;;;;6223728;22;20016;-86
2022/01/28 14:57:15;;;;;;;14.15;2.95;;;;;;;;;;6246602;22;20523;-85
2022/01/28 14:59:43;;;;;;;8.70;1.73;;;;;;;;;;6223030;22;20020;-86
2022/01/28 15:02:12;;;;;;;7.65;2.72;;;;;;;;;;6221090;22;20493;-86
2022/01/28 15:04:38;;;;;;;13.25;2.00;;;;;;;;;;6219805;22;20039;-86
2022/01/28 15:07:04;;;;;;;9.18;2.28;;;;;;;;;;6219112;22;20091;-85
2022/01/28 15:09:30;;;;;;;8.75;1.58;;;;;;;;;;6220321;22;20026;-86
2022/01/28 15:11:56;;;;;;;10.30;2.38;;;;;;;;;;6246007;22;20056;-85
2022/01/28 15:14:25;;;;;;;12.75;1.95;;;;;;;;;;6220089;22;20578;-86
2022/01/28 15:16:52;;;;;;;6.28;1.73;;;;;;;;;;6246380;22;20100;-85
2022/01/28 15:19:18;;;;;;;4.82;1.75;;;;;;;;;;6220681;22;20119;-86
2022/01/28 15:21:50;;;;;;;8.05;1.98;;;;;;;;;;6222177;22;20107;-86
2022/01/28 15:24:17;;;;;;;11.35;2.22;;;;;;;;;;6221763;22;20030;-85
2022/01/28 15:26:43;;;;;;;8.57;2.35;;;;;;;;;;6222130;22;20027;-85
2022/01/28 15:29:12;;;;;;;12.27;1.70;;;;;;;;;;6220610;22;20085;-85
2022/01/28 15:34:51;;;;;;;5.05;1.45;;;;;;;;;;6252117;22;20471;-85
2022/01/28 15:37:16;;;;;;;7.40;1.77;;;;;;;;;;6226886;22;20027;-85
2022/01/28 15:39:42;;;;;;;13.13;2.40;;;;;;;;;;6222668;22;20038;-86
2022/01/28 15:42:09;;;;;;;10.98;1.70;;;;;;;;;;6220170;22;20016;-85
2022/01/28 15:44:36;;;;;;;9.23;2.53;;;;;;;;;;6221897;22;20070;-86
2022/01/28 15:47:03;;;;;;;9.25;2.65;;;;;;;;;;6246163;22;20022;-85
2022/01/28 15:49:30;;;;;;;11.65;3.38;;;;;;;;;;6247144;22;20012;-85
2022/01/28 15:51:56;;;;;;;17.45;2.90;;;;;;;;;;6221882;22;20035;-85
2022/01/28 15:54:21;;;;;;;11.77;2.08;;;;;;;;;;6223970;22;20030;-85